Time;durP1;ratioP1;P1;durP2;ratioP2;P2;SDS_P1;SDS_P2;PMS_P1;PMS_P2;Temp;Humidity;BMP_temperature;BMP_pressure;BME280_temperature;BME280_humidity;BME280_pressure;Samples;Min_cycle;Max_cycle;Signal;HPM_P1;HPM_P2
2021/07/08 00:00:40;;;;;;;658.78;533.85;;;;;;;;;;4934214;29;20054;-77
2021/07/08 00:03:06;;;;;;;698.08;555.72;;;;;;;;;;4932341;29;20040;-77
2021/07/08 00:05:36;;;;;;;673.67;533.17;;;;;;;;;;4923019;29;20031;-77
2021/07/08 00:08:02;;;;;;;685.80;532.83;;;;;;;;;;4951822;29;20019;-77
2021/07/08 00:10:30;;;;;;;679.13;536.78;;;;;;;;;;4953407;29;20066;-77
2021/07/08 00:13:18;;;;;;;654.72;513.40;;;;;;;;;;4941323;28;20388;-77
2021/07/08 00:15:44;;;;;;;666.70;516.08;;;;;;;;;;4937059;29;20054;-77
2021/07/08 00:18:11;;;;;;;839.90;718.40;;;;;;;;;;4948010;29;20023;-77
2021/07/08 00:20:37;;;;;;;547.95;416.33;;;;;;;;;;4953132;29;20035;-77
2021/07/08 00:23:03;;;;;;;563.15;431.17;;;;;;;;;;4936077;29;20035;-77
2021/07/08 00:25:42;;;;;;;562.08;429.40;;;;;;;;;;4947082;29;20028;-77
2021/07/08 00:28:12;;;;;;;610.88;475.65;;;;;;;;;;4949609;29;20038;-77
2021/07/08 00:30:38;;;;;;;641.67;502.98;;;;;;;;;;4931320;29;20063;-77
2021/07/08 00:33:04;;;;;;;587.65;446.65;;;;;;;;;;4931123;29;20035;-77
2021/07/08 00:35:30;;;;;;;627.92;481.10;;;;;;;;;;4948821;29;20028;-77
2021/07/08 00:38:14;;;;;;;617.25;478.88;;;;;;;;;;4930867;29;20055;-77
2021/07/08 00:40:41;;;;;;;666.10;520.75;;;;;;;;;;4931676;29;20066;-77
2021/07/08 00:43:07;;;;;;;686.40;532.05;;;;;;;;;;4930423;29;20159;-77
2021/07/08 00:45:34;;;;;;;795.38;647.63;;;;;;;;;;4934654;29;20028;-77
2021/07/08 00:48:00;;;;;;;671.70;510.90;;;;;;;;;;4954073;29;20035;-77
2021/07/08 00:50:31;;;;;;;509.25;384.88;;;;;;;;;;4937816;29;22111;-77
2021/07/08 00:52:57;;;;;;;510.65;388.02;;;;;;;;;;4949800;28;20027;-77
2021/07/08 00:55:24;;;;;;;508.08;384.55;;;;;;;;;;4933490;29;20032;-77
2021/07/08 00:57:53;;;;;;;509.10;386.42;;;;;;;;;;4937710;29;20027;-77
2021/07/08 01:00:20;;;;;;;509.35;385.48;;;;;;;;;;4933907;29;20031;-76
2021/07/08 01:02:48;;;;;;;543.45;386.17;;;;;;;;;;4933470;29;20051;-77
2021/07/08 01:05:16;;;;;;;509.27;388.80;;;;;;;;;;4943638;29;20023;-77
2021/07/08 01:07:43;;;;;;;509.48;385.38;;;;;;;;;;4951861;28;20031;-77
2021/07/08 01:10:09;;;;;;;507.70;382.58;;;;;;;;;;4945492;29;20046;-77
2021/07/08 01:12:50;;;;;;;509.25;389.98;;;;;;;;;;4941611;28;20469;-77
2021/07/08 01:15:17;;;;;;;512.15;388.42;;;;;;;;;;4934011;29;20659;-76
2021/07/08 01:17:46;;;;;;;510.02;392.33;;;;;;;;;;4948248;29;20035;-77
2021/07/08 01:20:13;;;;;;;512.27;388.30;;;;;;;;;;4934478;29;20031;-77
2021/07/08 01:22:39;;;;;;;509.95;385.77;;;;;;;;;;4933306;28;20067;-76
2021/07/08 01:25:20;;;;;;;510.25;388.55;;;;;;;;;;4951273;29;20031;-76
2021/07/08 01:27:46;;;;;;;508.02;383.02;;;;;;;;;;4945215;28;20027;-76
2021/07/08 01:30:13;;;;;;;507.02;381.27;;;;;;;;;;4932683;29;20403;-76
2021/07/08 01:32:39;;;;;;;509.55;386.13;;;;;;;;;;4950271;29;20031;-76
2021/07/08 01:35:06;;;;;;;508.20;383.60;;;;;;;;;;4952729;28;20046;-76
2021/07/08 01:37:34;;;;;;;507.83;379.40;;;;;;;;;;4949067;29;20046;-75
2021/07/08 01:40:00;;;;;;;509.52;383.95;;;;;;;;;;4949678;28;20058;-75
2021/07/08 01:42:27;;;;;;;507.00;384.75;;;;;;;;;;4931542;29;20050;-75
2021/07/08 01:44:53;;;;;;;506.45;384.38;;;;;;;;;;4932706;29;20395;-76
2021/07/08 01:47:19;;;;;;;511.42;396.80;;;;;;;;;;4928434;29;20044;-76
2021/07/08 01:49:52;;;;;;;506.35;382.02;;;;;;;;;;4947825;28;20036;-76
2021/07/08 01:52:18;;;;;;;506.55;384.30;;;;;;;;;;4947721;28;20127;-76
2021/07/08 01:54:43;;;;;;;506.70;380.35;;;;;;;;;;4932666;29;20059;-76
2021/07/08 01:57:09;;;;;;;506.63;382.90;;;;;;;;;;4929561;28;20062;-76
2021/07/08 01:59:36;;;;;;;506.38;382.50;;;;;;;;;;4950631;28;20372;-76
2021/07/08 02:02:02;;;;;;;507.33;379.20;;;;;;;;;;4944587;29;20031;-75
2021/07/08 02:04:28;;;;;;;506.63;380.77;;;;;;;;;;4928766;29;20077;-75
2021/07/08 02:06:54;;;;;;;508.80;382.50;;;;;;;;;;4934468;28;20174;-76
2021/07/08 02:09:20;;;;;;;509.67;382.60;;;;;;;;;;4949985;28;20038;-76
2021/07/08 02:11:46;;;;;;;508.95;384.00;;;;;;;;;;4930473;28;20031;-76
2021/07/08 02:14:18;;;;;;;509.88;384.13;;;;;;;;;;4934120;29;20071;-76
2021/07/08 02:16:44;;;;;;;509.73;383.98;;;;;;;;;;4942914;28;20027;-75
2021/07/08 02:19:10;;;;;;;511.13;389.50;;;;;;;;;;4950095;28;20430;-75
2021/07/08 02:21:36;;;;;;;509.90;383.60;;;;;;;;;;4931521;29;20035;-76
2021/07/08 02:24:02;;;;;;;512.38;386.83;;;;;;;;;;4934061;29;20064;-75
2021/07/08 02:26:38;;;;;;;512.55;391.73;;;;;;;;;;4931152;29;20757;-76
2021/07/08 02:29:04;;;;;;;507.58;374.77;;;;;;;;;;4946180;28;20027;-76
2021/07/08 02:31:30;;;;;;;518.45;387.05;;;;;;;;;;4944119;28;20468;-75
2021/07/08 02:33:56;;;;;;;511.05;384.77;;;;;;;;;;4933729;29;20708;-76
2021/07/08 02:36:22;;;;;;;517.15;391.42;;;;;;;;;;4926836;29;20024;-76
2021/07/08 02:38:49;;;;;;;521.17;395.65;;;;;;;;;;4927096;29;20042;-76
2021/07/08 02:41:15;;;;;;;517.45;392.27;;;;;;;;;;4945385;29;20047;-76
2021/07/08 02:43:41;;;;;;;520.38;392.25;;;;;;;;;;4928509;29;20574;-76
2021/07/08 02:46:07;;;;;;;538.53;404.73;;;;;;;;;;4932539;29;20028;-76
2021/07/08 02:48:34;;;;;;;614.97;460.48;;;;;;;;;;4940754;28;20510;-75
2021/07/08 02:51:05;;;;;;;606.85;459.40;;;;;;;;;;4949500;28;20481;-75
2021/07/08 02:53:31;;;;;;;789.50;657.75;;;;;;;;;;4946558;29;20030;-75
2021/07/08 02:55:57;;;;;;;582.92;440.42;;;;;;;;;;4930154;29;20031;-76
2021/07/08 02:58:24;;;;;;;806.47;676.13;;;;;;;;;;4929346;28;20035;-75
2021/07/08 03:00:50;;;;;;;640.03;493.35;;;;;;;;;;4949450;28;20023;-75
2021/07/08 03:03:16;;;;;;;629.40;479.67;;;;;;;;;;4945964;29;20043;-75
2021/07/08 03:05:42;;;;;;;615.55;468.80;;;;;;;;;;4949235;28;20042;-75
2021/07/08 03:08:10;;;;;;;615.90;471.67;;;;;;;;;;4929333;29;20118;-75
2021/07/08 03:10:37;;;;;;;616.38;467.00;;;;;;;;;;4933917;29;20028;-75
2021/07/08 03:13:06;;;;;;;604.80;462.60;;;;;;;;;;4929560;29;20439;-75
2021/07/08 03:15:32;;;;;;;622.95;469.35;;;;;;;;;;4928756;29;20423;-75
2021/07/08 03:17:58;;;;;;;649.72;507.33;;;;;;;;;;4945169;29;20408;-75
2021/07/08 03:20:26;;;;;;;637.72;482.90;;;;;;;;;;4946604;28;20348;-75
2021/07/08 03:22:52;;;;;;;655.47;501.10;;;;;;;;;;4942715;28;20027;-75
2021/07/08 03:25:19;;;;;;;605.65;455.45;;;;;;;;;;4930332;28;20039;-75
2021/07/08 03:27:45;;;;;;;610.47;464.13;;;;;;;;;;4936958;28;20062;-75
2021/07/08 03:30:12;;;;;;;601.17;456.25;;;;;;;;;;4947111;28;20649;-75
2021/07/08 03:32:39;;;;;;;634.65;492.33;;;;;;;;;;4934614;28;20554;-76
2021/07/08 03:35:10;;;;;;;628.78;476.80;;;;;;;;;;4931079;29;20043;-75
2021/07/08 03:37:37;;;;;;;644.25;498.88;;;;;;;;;;4946457;28;21758;-76
2021/07/08 03:40:04;;;;;;;867.45;771.92;;;;;;;;;;4935403;29;20264;-75
2021/07/08 03:42:30;;;;;;;683.78;535.45;;;;;;;;;;4943622;29;20538;-75
2021/07/08 03:44:56;;;;;;;677.72;529.28;;;;;;;;;;4950830;29;20038;-75
2021/07/08 03:47:34;;;;;;;802.88;681.65;;;;;;;;;;4950131;29;20028;-76
2021/07/08 03:50:00;;;;;;;716.80;566.25;;;;;;;;;;4952577;28;20038;-77
2021/07/08 03:52:26;;;;;;;724.22;571.83;;;;;;;;;;4932324;28;20034;-76
2021/07/08 03:54:53;;;;;;;738.65;602.72;;;;;;;;;;4947547;29;20110;-75
2021/07/08 03:57:19;;;;;;;812.63;696.20;;;;;;;;;;4948584;29;20082;-75
2021/07/08 03:59:46;;;;;;;872.95;776.72;;;;;;;;;;4930823;29;20035;-75
2021/07/08 04:02:12;;;;;;;708.72;565.50;;;;;;;;;;4934847;29;20035;-75
2021/07/08 04:04:38;;;;;;;701.63;554.35;;;;;;;;;;4927220;29;20035;-76
2021/07/08 04:07:05;;;;;;;744.42;614.58;;;;;;;;;;4947617;29;20111;-75
2021/07/08 04:09:31;;;;;;;724.15;590.13;;;;;;;;;;4946890;28;20023;-76
2021/07/08 04:11:59;;;;;;;714.80;573.08;;;;;;;;;;4931810;29;20059;-76
2021/07/08 04:14:25;;;;;;;728.53;585.80;;;;;;;;;;4934025;28;20034;-76
2021/07/08 04:16:51;;;;;;;761.88;628.65;;;;;;;;;;4953691;28;20038;-75
2021/07/08 04:19:17;;;;;;;728.88;588.80;;;;;;;;;;4938998;28;20165;-75
2021/07/08 04:21:43;;;;;;;717.58;573.42;;;;;;;;;;4940551;29;20078;-76
2021/07/08 04:24:15;;;;;;;721.28;588.00;;;;;;;;;;4955355;29;20027;-76
2021/07/08 04:26:41;;;;;;;746.65;613.00;;;;;;;;;;4931892;29;20058;-76
2021/07/08 04:29:07;;;;;;;719.75;576.25;;;;;;;;;;4950309;29;20060;-76
2021/07/08 04:31:33;;;;;;;770.72;647.40;;;;;;;;;;4931203;29;20078;-76
2021/07/08 04:33:59;;;;;;;787.67;669.83;;;;;;;;;;4930557;29;20023;-76
2021/07/08 04:36:28;;;;;;;799.67;689.38;;;;;;;;;;4953009;28;20388;-76
2021/07/08 04:38:54;;;;;;;795.92;512.90;;;;;;;;;;4940152;28;20743;-76
2021/07/08 04:41:21;;;;;;;656.92;512.47;;;;;;;;;;4932282;29;20031;-76
2021/07/08 04:43:47;;;;;;;655.85;516.38;;;;;;;;;;4934508;29;20069;-76
2021/07/08 04:46:13;;;;;;;688.25;546.58;;;;;;;;;;4926506;29;20031;-76
2021/07/08 04:48:45;;;;;;;673.72;537.58;;;;;;;;;;4935079;29;20031;-76
2021/07/08 04:51:11;;;;;;;685.20;555.20;;;;;;;;;;4933526;29;20031;-76
2021/07/08 04:53:38;;;;;;;690.03;554.45;;;;;;;;;;4930636;29;20078;-76
2021/07/08 04:56:04;;;;;;;728.22;608.63;;;;;;;;;;4954964;28;20162;-76
2021/07/08 04:58:30;;;;;;;731.50;605.13;;;;;;;;;;4950108;28;20680;-76
2021/07/08 05:00:57;;;;;;;691.50;557.95;;;;;;;;;;4932093;29;20118;-76
2021/07/08 05:03:23;;;;;;;714.72;590.67;;;;;;;;;;4932932;29;20096;-77
2021/07/08 05:05:49;;;;;;;679.35;554.10;;;;;;;;;;4949126;29;20082;-76
2021/07/08 05:08:16;;;;;;;684.88;567.75;;;;;;;;;;4934963;29;20027;-77
2021/07/08 05:10:41;;;;;;;691.97;578.03;;;;;;;;;;4947496;29;20024;-76
2021/07/08 05:13:29;;;;;;;686.25;555.47;;;;;;;;;;4933760;29;20023;-77
2021/07/08 05:15:55;;;;;;;694.40;574.70;;;;;;;;;;4923564;29;20036;-76
2021/07/08 05:18:21;;;;;;;716.83;606.63;;;;;;;;;;4931000;29;20024;-77
2021/07/08 05:20:49;;;;;;;774.45;686.20;;;;;;;;;;4935226;29;20035;-77
2021/07/08 05:23:17;;;;;;;705.30;599.33;;;;;;;;;;4946401;28;20032;-76
2021/07/08 05:25:50;;;;;;;734.30;630.78;;;;;;;;;;4933834;29;20066;-77
2021/07/08 05:28:16;;;;;;;850.65;495.42;;;;;;;;;;4950442;29;20023;-77
2021/07/08 05:30:42;;;;;;;484.48;393.10;;;;;;;;;;4926976;29;20070;-77
2021/07/08 05:33:08;;;;;;;486.90;399.40;;;;;;;;;;4934291;29;20038;-77
2021/07/08 05:35:34;;;;;;;484.23;394.65;;;;;;;;;;4949142;28;20031;-77
2021/07/08 05:38:03;;;;;;;489.38;402.92;;;;;;;;;;4931322;29;20173;-76
2021/07/08 05:40:29;;;;;;;483.58;391.80;;;;;;;;;;4945014;29;20028;-76
2021/07/08 05:42:55;;;;;;;489.90;405.40;;;;;;;;;;4931523;29;20031;-77
2021/07/08 05:45:22;;;;;;;490.08;403.92;;;;;;;;;;4933253;29;20027;-76
2021/07/08 05:47:48;;;;;;;489.75;405.40;;;;;;;;;;4933697;28;20031;-77
2021/07/08 05:50:16;;;;;;;490.65;405.80;;;;;;;;;;4929798;29;20023;-77
2021/07/08 05:52:42;;;;;;;490.25;405.83;;;;;;;;;;4952643;29;20387;-76
2021/07/08 05:55:08;;;;;;;484.38;396.98;;;;;;;;;;4943369;29;20023;-77
2021/07/08 05:57:34;;;;;;;491.02;407.77;;;;;;;;;;4954247;29;20106;-76
2021/07/08 06:00:00;;;;;;;490.52;411.08;;;;;;;;;;4935449;29;20122;-76
2021/07/08 06:02:26;;;;;;;492.38;412.23;;;;;;;;;;4936768;29;20047;-77
2021/07/08 06:04:52;;;;;;;492.95;413.23;;;;;;;;;;4943628;29;20035;-77
2021/07/08 06:07:19;;;;;;;492.60;408.70;;;;;;;;;;4931327;29;20468;-77
2021/07/08 06:09:45;;;;;;;494.38;408.65;;;;;;;;;;4949785;29;20408;-77
2021/07/08 06:12:13;;;;;;;496.80;413.65;;;;;;;;;;4938246;29;20024;-77
2021/07/08 06:14:40;;;;;;;503.80;419.23;;;;;;;;;;4935945;29;20027;-76
2021/07/08 06:17:07;;;;;;;500.25;422.35;;;;;;;;;;4941973;29;20037;-76
2021/07/08 06:19:33;;;;;;;500.35;419.63;;;;;;;;;;4940580;29;20054;-76
2021/07/08 06:21:59;;;;;;;506.63;429.08;;;;;;;;;;4933654;28;20019;-76
2021/07/08 06:24:31;;;;;;;510.92;429.02;;;;;;;;;;4935962;29;20058;-76
2021/07/08 06:26:57;;;;;;;514.88;435.85;;;;;;;;;;4941513;29;20390;-77
2021/07/08 06:29:23;;;;;;;518.15;438.20;;;;;;;;;;4936104;29;20114;-76
2021/07/08 06:31:49;;;;;;;526.28;443.25;;;;;;;;;;4936936;29;20023;-76
2021/07/08 06:34:15;;;;;;;525.05;446.10;;;;;;;;;;4939650;29;20054;-76
2021/07/08 06:36:41;;;;;;;519.10;441.67;;;;;;;;;;4950767;29;20028;-76
2021/07/08 06:39:07;;;;;;;519.55;442.52;;;;;;;;;;4936813;29;20072;-76
2021/07/08 06:41:33;;;;;;;515.22;441.38;;;;;;;;;;4952800;29;20128;-76
2021/07/08 06:43:59;;;;;;;515.38;439.00;;;;;;;;;;4939721;29;20050;-76
2021/07/08 06:46:28;;;;;;;513.88;440.95;;;;;;;;;;4942795;29;20036;-76
2021/07/08 06:48:54;;;;;;;506.90;432.38;;;;;;;;;;4949743;29;20106;-76
2021/07/08 06:51:20;;;;;;;507.15;433.80;;;;;;;;;;4933544;29;20027;-77
2021/07/08 06:53:46;;;;;;;506.55;431.55;;;;;;;;;;4945661;29;20023;-76
2021/07/08 06:56:12;;;;;;;510.52;437.17;;;;;;;;;;4952669;29;20653;-78
2021/07/08 06:58:38;;;;;;;512.45;444.45;;;;;;;;;;4932406;29;20042;-77
2021/07/08 07:01:04;;;;;;;508.30;438.88;;;;;;;;;;4936806;29;20490;-79
2021/07/08 07:03:34;;;;;;;513.58;443.92;;;;;;;;;;4942226;29;20062;-77
2021/07/08 07:06:00;;;;;;;524.63;456.75;;;;;;;;;;4940656;28;20039;-78
2021/07/08 07:08:26;;;;;;;527.10;456.60;;;;;;;;;;4938727;29;20057;-78
2021/07/08 07:10:52;;;;;;;531.13;467.23;;;;;;;;;;4940720;29;20019;-80
2021/07/08 07:13:18;;;;;;;515.05;451.40;;;;;;;;;;4956258;29;20688;-78
2021/07/08 07:15:44;;;;;;;519.92;451.98;;;;;;;;;;4957568;29;20027;-80
2021/07/08 07:18:24;;;;;;;531.55;470.48;;;;;;;;;;4929150;29;20031;-80
2021/07/08 07:20:50;;;;;;;528.37;467.27;;;;;;;;;;4954319;28;20024;-78
2021/07/08 07:23:16;;;;;;;546.53;484.25;;;;;;;;;;4945155;29;20110;-77
2021/07/08 07:25:42;;;;;;;548.92;488.35;;;;;;;;;;4957549;29;20527;-80
2021/07/08 07:28:08;;;;;;;563.17;501.17;;;;;;;;;;4957179;29;20106;-80
2021/07/08 07:30:56;;;;;;;567.38;504.70;;;;;;;;;;4940110;29;20035;-80
2021/07/08 07:33:22;;;;;;;590.72;526.08;;;;;;;;;;4957186;29;20031;-80
2021/07/08 07:35:48;;;;;;;574.25;511.50;;;;;;;;;;4936239;29;20086;-79
2021/07/08 07:38:15;;;;;;;583.58;519.80;;;;;;;;;;4932227;29;20031;-81
2021/07/08 07:40:43;;;;;;;821.03;735.05;;;;;;;;;;4934155;29;20081;-81
2021/07/08 07:43:09;;;;;;;533.13;474.75;;;;;;;;;;4954728;28;20035;-78
2021/07/08 07:45:35;;;;;;;530.35;472.38;;;;;;;;;;4953465;29;20135;-80
2021/07/08 07:48:05;;;;;;;539.10;480.85;;;;;;;;;;4931492;29;20484;-81
2021/07/08 07:50:32;;;;;;;533.90;475.93;;;;;;;;;;4938448;29;20027;-79
2021/07/08 07:52:59;;;;;;;533.05;475.48;;;;;;;;;;4956095;29;20338;-81
2021/07/08 07:55:28;;;;;;;541.65;483.63;;;;;;;;;;4938973;29;20047;-83
2021/07/08 07:57:58;;;;;;;547.50;488.85;;;;;;;;;;4949185;29;20035;-80
2021/07/08 08:00:25;;;;;;;538.28;480.40;;;;;;;;;;4938241;29;20074;-80
2021/07/08 08:02:52;;;;;;;536.88;479.17;;;;;;;;;;4940441;29;20178;-79
2021/07/08 08:05:22;;;;;;;549.95;491.33;;;;;;;;;;4937466;29;20455;-81
2021/07/08 08:10:33;;;;;;;550.03;491.58;;;;;;;;;;4956140;29;20111;-80
2021/07/08 08:13:09;;;;;;;550.22;492.08;;;;;;;;;;4934563;29;20028;-81
2021/07/08 08:15:35;;;;;;;556.22;497.90;;;;;;;;;;4929270;29;20586;-80
2021/07/08 08:18:01;;;;;;;555.90;497.65;;;;;;;;;;4938224;29;20031;-77
2021/07/08 08:20:29;;;;;;;571.42;511.88;;;;;;;;;;4955235;29;20246;-79
2021/07/08 08:22:55;;;;;;;561.83;503.15;;;;;;;;;;4932135;29;20027;-83
2021/07/08 08:25:21;;;;;;;564.55;505.75;;;;;;;;;;4942147;29;20027;-82
2021/07/08 08:27:47;;;;;;;568.00;508.77;;;;;;;;;;4953055;28;20042;-80
2021/07/08 08:30:14;;;;;;;593.35;532.58;;;;;;;;;;4930138;29;20444;-80
2021/07/08 08:32:43;;;;;;;599.80;538.45;;;;;;;;;;4933355;29;20729;-83
2021/07/08 08:35:10;;;;;;;641.80;576.85;;;;;;;;;;4928665;29;20484;-78
2021/07/08 08:37:36;;;;;;;596.40;535.70;;;;;;;;;;4936607;29;20066;-79
2021/07/08 08:40:04;;;;;;;602.78;541.67;;;;;;;;;;4934948;29;20387;-81
2021/07/08 08:42:30;;;;;;;586.15;526.38;;;;;;;;;;4954806;29;20383;-80
2021/07/08 08:45:18;;;;;;;581.90;522.58;;;;;;;;;;4938769;29;20031;-80
2021/07/08 08:48:02;;;;;;;567.22;508.80;;;;;;;;;;4945169;29;20696;-80
2021/07/08 08:50:30;;;;;;;560.08;502.17;;;;;;;;;;4948557;29;20067;-79
2021/07/08 08:52:56;;;;;;;550.40;493.48;;;;;;;;;;4943738;29;20426;-81
2021/07/08 08:55:23;;;;;;;556.55;499.23;;;;;;;;;;4939066;29;20028;-81
2021/07/08 08:57:49;;;;;;;556.42;499.00;;;;;;;;;;4938551;29;20064;-80
2021/07/08 09:00:18;;;;;;;562.33;504.27;;;;;;;;;;4952302;29;20074;-80
2021/07/08 09:02:57;;;;;;;543.42;486.35;;;;;;;;;;4931560;29;20028;-83
2021/07/08 09:05:53;;;;;;;561.13;503.23;;;;;;;;;;4942529;28;20113;-80
2021/07/08 09:08:21;;;;;;;562.40;504.48;;;;;;;;;;4955577;29;20040;-79
2021/07/08 09:10:50;;;;;;;569.00;510.92;;;;;;;;;;4948746;29;20456;-79
2021/07/08 09:13:17;;;;;;;580.78;522.10;;;;;;;;;;4934922;29;20110;-83
2021/07/08 09:15:43;;;;;;;598.53;538.85;;;;;;;;;;4937638;29;20035;-82
2021/07/08 09:21:16;;;;;;;600.08;539.90;;;;;;;;;;4950778;29;20115;-81
2021/07/08 09:24:01;;;;;;;618.13;557.08;;;;;;;;;;4955191;29;20028;-82
2021/07/08 09:26:27;;;;;;;612.47;551.72;;;;;;;;;;4938180;29;20388;-81
2021/07/08 09:29:02;;;;;;;717.85;648.30;;;;;;;;;;4936216;29;20592;-79
2021/07/08 09:31:28;;;;;;;642.13;579.05;;;;;;;;;;4947248;29;20032;-81
2021/07/08 09:33:55;;;;;;;752.50;680.70;;;;;;;;;;4931113;29;20115;-80
2021/07/08 09:36:22;;;;;;;865.17;785.88;;;;;;;;;;4942301;29;20032;-81
2021/07/08 09:38:49;;;;;;;778.13;705.40;;;;;;;;;;4929818;29;20028;-85
2021/07/08 09:41:25;;;;;;;958.00;861.35;;;;;;;;;;4946233;28;20024;-81
2021/07/08 09:43:52;;;;;;;926.67;844.00;;;;;;;;;;4948226;29;20031;-81
2021/07/08 09:46:32;;;;;;;824.75;750.30;;;;;;;;;;4945489;29;20035;-83
2021/07/08 09:49:05;;;;;;;925.20;844.63;;;;;;;;;;4936997;29;20695;-84
2021/07/08 09:51:47;;;;;;;874.08;798.15;;;;;;;;;;4936534;29;20038;-79
2021/07/08 09:56:51;;;;;;;867.35;776.75;;;;;;;;;;4945128;29;20058;-80
2021/07/08 09:59:20;;;;;;;741.83;676.88;;;;;;;;;;4930839;29;20118;-81
2021/07/08 10:01:56;;;;;;;705.33;643.50;;;;;;;;;;4928642;29;20055;-90
2021/07/08 10:04:23;;;;;;;693.40;632.17;;;;;;;;;;4933811;29;20044;-82
2021/07/08 10:06:49;;;;;;;693.58;632.92;;;;;;;;;;4936867;29;20039;-83
2021/07/08 10:09:18;;;;;;;685.17;625.20;;;;;;;;;;4953307;29;20040;-81
2021/07/08 10:11:49;;;;;;;692.80;633.10;;;;;;;;;;4930348;29;20164;-80
2021/07/08 10:14:49;;;;;;;688.60;629.38;;;;;;;;;;4934645;29;20034;-85
2021/07/08 10:17:19;;;;;;;686.85;627.83;;;;;;;;;;4933643;29;20127;-82
2021/07/08 10:19:47;;;;;;;680.25;621.40;;;;;;;;;;4935994;29;20122;-84
2021/07/08 10:22:14;;;;;;;684.05;625.25;;;;;;;;;;4943461;29;20043;-83
2021/07/08 10:24:40;;;;;;;701.15;641.70;;;;;;;;;;4933225;29;20031;-82
2021/07/08 10:27:19;;;;;;;692.63;633.80;;;;;;;;;;4940629;29;20031;-79
2021/07/08 10:29:46;;;;;;;694.47;635.38;;;;;;;;;;4939181;29;20019;-81
2021/07/08 10:32:14;;;;;;;684.28;625.40;;;;;;;;;;4932460;29;20019;-81
2021/07/08 10:34:47;;;;;;;682.55;623.67;;;;;;;;;;4931698;29;20029;-77
2021/07/08 10:40:27;;;;;;;691.92;632.58;;;;;;;;;;4947929;28;20035;-81
2021/07/08 10:42:54;;;;;;;714.25;654.22;;;;;;;;;;4935826;29;21796;-80
2021/07/08 10:45:27;;;;;;;716.83;657.20;;;;;;;;;;4950799;29;20019;-82
2021/07/08 10:48:12;;;;;;;745.83;685.20;;;;;;;;;;4954640;28;20082;-81
2021/07/08 10:50:42;;;;;;;768.25;706.97;;;;;;;;;;4948525;29;20028;-82
2021/07/08 10:53:20;;;;;;;769.17;708.17;;;;;;;;;;4958107;28;20067;-83
2021/07/08 10:55:51;;;;;;;844.75;779.72;;;;;;;;;;4951403;28;20035;-83
2021/07/08 10:58:39;;;;;;;776.10;715.08;;;;;;;;;;4957150;29;20031;-84
2021/07/08 11:01:06;;;;;;;783.83;722.90;;;;;;;;;;4936854;29;20056;-82
2021/07/08 11:03:51;;;;;;;837.65;773.90;;;;;;;;;;4925501;29;20039;-86
2021/07/08 11:06:17;;;;;;;955.10;884.47;;;;;;;;;;4935459;29;20031;-83
2021/07/08 11:09:03;;;;;;;959.47;888.90;;;;;;;;;;4919309;29;20032;-85
2021/07/08 11:11:29;;;;;;;923.65;854.83;;;;;;;;;;4928741;29;20042;-82
2021/07/08 11:14:08;;;;;;;1134.55;999.90;;;;;;;;;;4917729;29;20110;-84
2021/07/08 11:16:53;;;;;;;960.03;888.58;;;;;;;;;;4926250;29;20392;-83
2021/07/08 11:19:33;;;;;;;1194.43;999.90;;;;;;;;;;4926634;29;20043;-82
2021/07/08 11:22:05;;;;;;;1309.18;999.90;;;;;;;;;;4930435;29;20075;-82
2021/07/08 11:24:43;;;;;;;824.22;760.97;;;;;;;;;;4930081;29;20028;-78
2021/07/08 11:27:14;;;;;;;857.67;791.97;;;;;;;;;;4924484;29;20058;-82
2021/07/08 11:30:12;;;;;;;966.72;894.03;;;;;;;;;;4926616;29;20051;-84
2021/07/08 11:32:50;;;;;;;930.72;859.20;;;;;;;;;;4894907;29;20063;-83
2021/07/08 11:38:15;;;;;;;1007.08;927.15;;;;;;;;;;4925597;29;20047;-80
2021/07/08 11:40:49;;;;;;;1036.40;953.85;;;;;;;;;;4914475;29;20091;-75
2021/07/08 11:43:23;;;;;;;1146.15;999.90;;;;;;;;;;4913375;29;20087;-79
2021/07/08 11:45:50;;;;;;;1040.88;955.63;;;;;;;;;;4911667;29;20481;-82
2021/07/08 11:48:23;;;;;;;1158.43;999.90;;;;;;;;;;4917521;29;20039;-81
2021/07/08 11:50:52;;;;;;;1076.20;988.55;;;;;;;;;;4927542;29;20019;-79
2021/07/08 11:53:19;;;;;;;1069.17;980.70;;;;;;;;;;4907051;29;20052;-80
2021/07/08 11:55:50;;;;;;;1139.20;999.90;;;;;;;;;;4916033;29;20032;-80
2021/07/08 11:58:23;;;;;;;1181.68;999.90;;;;;;;;;;4924379;29;20062;-83
2021/07/08 12:00:59;;;;;;;1202.15;999.90;;;;;;;;;;4931648;29;20042;-81
2021/07/08 12:03:27;;;;;;;1035.38;951.38;;;;;;;;;;4914944;29;20079;-82
2021/07/08 12:06:00;;;;;;;1161.05;999.90;;;;;;;;;;4953959;29;20050;-80
2021/07/08 12:08:27;;;;;;;1083.82;993.65;;;;;;;;;;4947697;28;20054;-80
2021/07/08 12:11:16;;;;;;;775.88;709.10;;;;;;;;;;4934369;29;20038;-81
2021/07/08 12:13:47;;;;;;;830.40;759.30;;;;;;;;;;4929211;29;20046;-81
2021/07/08 12:16:13;;;;;;;788.97;720.97;;;;;;;;;;4930755;29;20023;-84
2021/07/08 12:18:50;;;;;;;776.50;708.72;;;;;;;;;;4934223;29;20033;-82
2021/07/08 12:21:32;;;;;;;788.03;719.67;;;;;;;;;;4951202;29;20050;-77
2021/07/08 12:24:03;;;;;;;811.38;741.97;;;;;;;;;;4951743;28;20031;-83
2021/07/08 12:26:31;;;;;;;966.30;887.05;;;;;;;;;;4933994;29;20455;-82
2021/07/08 12:29:17;;;;;;;971.38;892.75;;;;;;;;;;4949818;29;20031;-79
2021/07/08 12:35:17;;;;;;;811.55;744.28;;;;;;;;;;4949751;28;20062;-85
2021/07/08 12:37:43;;;;;;;1032.50;951.10;;;;;;;;;;4938824;29;20023;-84
2021/07/08 12:40:12;;;;;;;946.97;872.38;;;;;;;;;;4939668;29;20031;-87
2021/07/08 12:42:48;;;;;;;934.67;861.20;;;;;;;;;;4955440;29;20034;-82
2021/07/08 12:45:15;;;;;;;926.75;854.08;;;;;;;;;;4939029;29;20322;-87
2021/07/08 12:47:42;;;;;;;934.42;861.25;;;;;;;;;;4936017;29;20087;-87
2021/07/08 12:50:09;;;;;;;1032.28;952.40;;;;;;;;;;4938281;28;20023;-88
2021/07/08 12:52:39;;;;;;;998.90;921.35;;;;;;;;;;4939692;29;20030;-84
2021/07/08 12:55:06;;;;;;;1013.42;934.55;;;;;;;;;;4938996;29;20024;-87
2021/07/08 12:57:35;;;;;;;882.97;812.38;;;;;;;;;;4942155;28;20365;-86
2021/07/08 13:00:05;;;;;;;852.65;783.78;;;;;;;;;;4938479;29;20039;-86
2021/07/08 13:02:31;;;;;;;810.88;743.97;;;;;;;;;;4939199;29;20027;-82
2021/07/08 13:05:00;;;;;;;837.92;768.95;;;;;;;;;;4935416;29;20054;-86
2021/07/08 13:07:26;;;;;;;833.95;764.55;;;;;;;;;;4938950;29;20035;-87
2021/07/08 13:09:59;;;;;;;903.38;829.50;;;;;;;;;;4935354;29;20028;-85
2021/07/08 13:12:27;;;;;;;824.63;755.95;;;;;;;;;;4936496;28;20086;-85
2021/07/08 13:14:55;;;;;;;823.25;755.10;;;;;;;;;;4927864;29;20115;-87
2021/07/08 13:17:25;;;;;;;844.83;775.53;;;;;;;;;;4951665;29;20031;-87
2021/07/08 13:20:00;;;;;;;873.20;802.83;;;;;;;;;;4953819;29;20036;-83
2021/07/08 13:22:26;;;;;;;901.85;830.08;;;;;;;;;;4947747;28;20038;-82
2021/07/08 13:24:52;;;;;;;922.33;849.28;;;;;;;;;;4936084;28;20114;-87
2021/07/08 13:27:40;;;;;;;910.75;837.95;;;;;;;;;;4935036;29;20035;-85
2021/07/08 13:33:14;;;;;;;867.88;797.88;;;;;;;;;;4947220;29;20686;-89
2021/07/08 13:35:50;;;;;;;929.80;856.58;;;;;;;;;;4951541;29;20025;-87
2021/07/08 13:38:24;;;;;;;1094.43;999.90;;;;;;;;;;4938075;29;20387;-85
2021/07/08 13:41:14;;;;;;;1073.43;988.95;;;;;;;;;;4937668;29;20731;-89
2021/07/08 13:43:41;;;;;;;1142.75;999.90;;;;;;;;;;4934499;29;20031;-87
2021/07/08 13:46:15;;;;;;;1125.18;999.90;;;;;;;;;;4949546;29;20066;-87
2021/07/08 13:48:42;;;;;;;1186.15;999.90;;;;;;;;;;4955200;28;20031;-87
2021/07/08 13:51:09;;;;;;;1103.18;999.90;;;;;;;;;;4939097;29;20464;-86
2021/07/08 13:53:55;;;;;;;1107.35;999.90;;;;;;;;;;4943117;29;20085;-82
2021/07/08 13:56:21;;;;;;;1168.93;999.90;;;;;;;;;;4935748;29;20024;-92
2021/07/08 13:58:48;;;;;;;1144.90;999.90;;;;;;;;;;4938216;29;20023;-88
2021/07/08 14:01:15;;;;;;;1215.15;999.90;;;;;;;;;;4937945;29;20122;-88
2021/07/08 14:03:41;;;;;;;1117.43;999.90;;;;;;;;;;4943447;28;20050;-87
2021/07/08 14:06:08;;;;;;;1254.75;999.90;;;;;;;;;;4954059;29;20475;-89
2021/07/08 14:08:43;;;;;;;1449.72;999.90;;;;;;;;;;4920718;29;20100;-87
2021/07/08 14:11:13;;;;;;;1413.30;999.90;;;;;;;;;;4934995;29;20461;-90
2021/07/08 14:13:39;;;;;;;976.40;898.72;;;;;;;;;;4930179;29;20038;-83
2021/07/08 14:16:06;;;;;;;951.03;874.13;;;;;;;;;;4936650;29;20019;-89
2021/07/08 14:18:33;;;;;;;1206.75;999.90;;;;;;;;;;4936823;28;20051;-84
2021/07/08 14:20:59;;;;;;;1222.07;999.90;;;;;;;;;;4955441;28;20515;-84
2021/07/08 14:23:27;;;;;;;1365.07;999.90;;;;;;;;;;4930107;29;20024;-87